Raciborz, Poland
Current Conditions -  °F | °C
As of 6:30 PM on Sunday 23 Nov 2014 (Local Time) from LKMT Reporting Station
Clear Clear  
Wind Chill: 36°   Ceiling: Unl
Heat Index: 39°   Visibility: 6mi
Dew Point: 32°   Wind: 5mph
Humidity: 75%   Direction: 200°SSW
Pressure: 30.36"   Gusts: NA
Location:  50.09°N, 18.22°E
Report Text: LKMT 231630Z 20004KT CAVOK 04/M00 Q1028 NOSIG
Loading
Personal Weather Stations






























Interactive Weather Map New forecast layout! Learn more

10-Day Weather Forecast

Advertisements
Track Severe Weather on mobile